Time;durP1;ratioP1;P1;durP2;ratioP2;P2;SDS_P1;SDS_P2;PMS_P1;PMS_P2;Temp;Humidity;BMP_temperature;BMP_pressure;BME280_temperature;BME280_humidity;BME280_pressure;Samples;Min_cycle;Max_cycle;Signal;HPM_P1;HPM_P2
2022/05/20 00:00:41;;;;;;;27.80;8.40;;;18.90;99.90;;;;;;5098792;28;20028;-73
2022/05/20 00:03:07;;;;;;;18.75;9.05;;;18.90;99.90;;;;;;5098867;28;20438;-73
2022/05/20 00:05:33;;;;;;;22.65;8.48;;;18.90;99.90;;;;;;5099996;28;20024;-73
2022/05/20 00:08:00;;;;;;;16.05;8.88;;;18.90;99.90;;;;;;5098722;28;20078;-72
2022/05/20 00:10:28;;;;;;;18.88;9.30;;;18.90;99.90;;;;;;5100157;28;20024;-73
2022/05/20 00:12:55;;;;;;;18.55;8.63;;;18.90;99.90;;;;;;5098920;28;20021;-73
2022/05/20 00:15:23;;;;;;;15.88;8.30;;;18.80;99.90;;;;;;5093867;28;20027;-72
2022/05/20 00:17:49;;;;;;;22.48;9.15;;;18.80;99.90;;;;;;5098380;28;20034;-73
2022/05/20 00:20:17;;;;;;;15.90;8.95;;;18.80;99.90;;;;;;5098440;28;20032;-72
2022/05/20 00:22:43;;;;;;;19.48;9.25;;;18.80;99.90;;;;;;5099744;28;20027;-71
2022/05/20 00:27:56;;;;;;;20.73;8.13;;;18.80;99.90;;;;;;5100008;28;20479;-73
2022/05/20 00:30:22;;;;;;;19.52;9.35;;;18.80;99.90;;;;;;5098255;28;20028;-72
2022/05/20 00:32:47;;;;;;;13.95;8.95;;;18.80;99.90;;;;;;5098376;28;20031;-73
2022/05/20 00:35:14;;;;;;;12.30;8.10;;;18.80;99.90;;;;;;5099328;28;20020;-72
2022/05/20 00:37:43;;;;;;;18.58;7.47;;;18.80;99.90;;;;;;5099772;28;20109;-73
2022/05/20 00:40:11;;;;;;;17.63;7.82;;;18.80;99.90;;;;;;5084643;28;20024;-73
2022/05/20 00:42:37;;;;;;;14.65;9.60;;;18.80;99.90;;;;;;5099541;28;20020;-73
2022/05/20 00:45:05;;;;;;;18.05;8.90;;;18.80;99.90;;;;;;5097553;28;20034;-73
2022/05/20 00:47:31;;;;;;;13.88;7.80;;;18.70;99.90;;;;;;5098026;28;20016;-73
2022/05/20 00:50:00;;;;;;;19.13;10.75;;;18.70;99.90;;;;;;5097874;28;20028;-73
2022/05/20 00:52:29;;;;;;;19.00;8.52;;;18.70;99.90;;;;;;5080476;28;20031;-73
2022/05/20 00:54:59;;;;;;;13.70;7.32;;;18.70;99.90;;;;;;5099167;28;20089;-74
2022/05/20 00:57:33;;;;;;;16.67;8.35;;;18.70;99.90;;;;;;5099458;28;20013;-73
2022/05/20 01:00:08;;;;;;;14.93;7.97;;;18.70;99.90;;;;;;5098939;28;20051;-73
2022/05/20 01:02:34;;;;;;;17.17;7.82;;;18.70;99.90;;;;;;5099231;28;20145;-73
2022/05/20 01:05:03;;;;;;;12.20;7.97;;;18.70;99.90;;;;;;5097394;28;20035;-74
2022/05/20 01:07:31;;;;;;;16.00;7.82;;;18.70;99.90;;;;;;5097747;28;20024;-74
2022/05/20 01:09:57;;;;;;;12.93;7.75;;;18.60;99.90;;;;;;5099007;28;20136;-74
2022/05/20 01:12:27;;;;;;;17.55;8.00;;;18.60;99.90;;;;;;5098892;28;20056;-74
2022/05/20 01:14:53;;;;;;;14.18;7.38;;;18.60;99.90;;;;;;5097713;28;20024;-72
2022/05/20 01:17:19;;;;;;;19.55;8.13;;;18.60;99.90;;;;;;5093162;28;20535;-72
2022/05/20 01:19:54;;;;;;;16.80;7.70;;;18.60;99.90;;;;;;5098900;28;20069;-73
2022/05/20 01:22:59;;;;;;;19.67;8.05;;;18.60;99.90;;;;;;5097328;28;20031;-74
2022/05/20 01:25:28;;;;;;;17.83;7.40;;;18.60;99.90;;;;;;5086385;28;20066;-73
2022/05/20 01:27:53;;;;;;;20.77;7.40;;;18.60;99.90;;;;;;5098508;28;20016;-73
2022/05/20 01:30:25;;;;;;;18.25;7.57;;;18.60;99.90;;;;;;5096982;28;20051;-73
2022/05/20 01:32:51;;;;;;;15.32;6.25;;;18.60;99.90;;;;;;5097183;28;20491;-73
2022/05/20 01:35:39;;;;;;;17.60;7.65;;;18.60;99.90;;;;;;5097942;28;20115;-74
2022/05/20 01:38:07;;;;;;;18.33;7.72;;;18.60;99.90;;;;;;5098394;28;20484;-74
2022/05/20 01:40:47;;;;;;;9.18;5.85;;;18.50;99.90;;;;;;5084611;28;20024;-74
2022/05/20 01:43:36;;;;;;;11.40;6.68;;;18.60;99.90;;;;;;5098470;28;20028;-73
2022/05/20 01:46:09;;;;;;;15.25;6.35;;;18.50;99.90;;;;;;5096434;28;20543;-74
2022/05/20 01:48:51;;;;;;;8.52;6.22;;;18.60;99.90;;;;;;5097993;28;20426;-72
2022/05/20 01:51:21;;;;;;;14.05;6.60;;;18.60;99.90;;;;;;5096429;28;20482;-73
2022/05/20 01:53:54;;;;;;;17.98;6.78;;;18.60;99.90;;;;;;5098165;28;20027;-73
2022/05/20 01:56:38;;;;;;;10.73;5.28;;;18.50;99.90;;;;;;5097937;28;20429;-73
2022/05/20 01:59:24;;;;;;;13.75;6.22;;;18.50;99.90;;;;;;5096517;28;20034;-73
2022/05/20 02:01:55;;;;;;;11.88;6.82;;;18.60;99.90;;;;;;5098061;28;20023;-72
2022/05/20 02:04:43;;;;;;;14.98;6.07;;;18.60;99.90;;;;;;5096447;28;20473;-73
2022/05/20 02:07:13;;;;;;;14.05;6.72;;;18.60;99.90;;;;;;5096163;28;20031;-73
2022/05/20 02:10:04;;;;;;;13.90;5.38;;;18.50;99.90;;;;;;5097663;28;20099;-73
2022/05/20 02:12:36;;;;;;;;;;;18.50;99.90;;;;;;5096600;28;20024;-73
2022/05/20 02:15:11;;;;;;;15.70;6.03;;;18.60;99.90;;;;;;5095131;28;19904;-74
2022/05/20 02:17:39;;;;;;;15.82;7.07;;;18.60;99.90;;;;;;5079786;28;20111;-73
2022/05/20 02:20:11;;;;;;;12.25;6.22;;;18.50;99.90;;;;;;5097460;28;20085;-74
2022/05/20 02:22:55;;;;;;;14.13;5.97;;;18.50;99.90;;;;;;5097556;28;20047;-73
2022/05/20 02:25:28;;;;;;;14.05;6.70;;;18.50;99.90;;;;;;5097526;28;20020;-72
2022/05/20 02:28:01;;;;;;;12.85;6.18;;;18.50;99.90;;;;;;5097668;28;20024;-73
2022/05/20 02:30:31;;;;;;;10.63;5.72;;;18.50;99.90;;;;;;5095932;28;20020;-73
2022/05/20 02:33:05;;;;;;;16.58;6.07;;;18.50;99.90;;;;;;5096412;28;20529;-73
2022/05/20 02:35:32;;;;;;;11.55;6.22;;;18.50;99.90;;;;;;5097070;28;20442;-72
2022/05/20 02:38:12;;;;;;;17.85;6.32;;;18.50;99.90;;;;;;5096870;28;20032;-73
2022/05/20 02:40:39;;;;;;;17.52;6.25;;;18.60;99.90;;;;;;5083697;28;20020;-73
2022/05/20 02:43:05;;;;;;;14.02;6.45;;;18.50;99.90;;;;;;5095960;28;20024;-74
2022/05/20 02:45:32;;;;;;;13.23;5.85;;;18.50;99.90;;;;;;5095655;28;20048;-73
2022/05/20 02:47:58;;;;;;;14.77;5.78;;;18.50;99.90;;;;;;5095942;28;20081;-73
2022/05/20 02:50:24;;;;;;;13.38;6.45;;;18.50;99.90;;;;;;5096903;28;20089;-74
2022/05/20 02:52:50;;;;;;;17.92;6.60;;;18.50;99.90;;;;;;5097237;28;20499;-73
2022/05/20 02:55:15;;;;;;;16.05;6.53;;;18.50;99.90;;;;;;5095732;28;20021;-73
2022/05/20 02:57:44;;;;;;;15.82;6.70;;;18.50;99.90;;;;;;5097186;28;20099;-74
2022/05/20 03:05:40;;;;;;;10.75;5.53;;;18.50;99.90;;;;;;5096733;28;20035;-73
2022/05/20 03:08:06;;;;;;;12.05;6.15;;;18.50;99.90;;;;;;5095619;28;20024;-72
2022/05/20 03:10:32;;;;;;;9.10;5.18;;;18.50;99.90;;;;;;5097245;28;20486;-72
2022/05/20 03:13:02;;;;;;;10.35;6.20;;;18.50;99.90;;;;;;5095515;28;20052;-72
2022/05/20 03:15:28;;;;;;;;;;;18.40;99.90;;;;;;5091257;28;20020;-72
2022/05/20 03:17:55;;;;;;;17.23;7.28;;;18.40;99.90;;;;;;5095102;28;19904;-72
2022/05/20 03:20:21;;;;;;;14.32;5.75;;;18.50;99.90;;;;;;5095584;28;20020;-73
2022/05/20 03:22:47;;;;;;;11.05;5.65;;;18.50;99.90;;;;;;5096705;28;20112;-72
2022/05/20 03:25:12;;;;;;;16.40;6.40;;;18.50;99.90;;;;;;5095499;28;20060;-72
2022/05/20 03:27:38;;;;;;;14.30;6.57;;;18.50;99.90;;;;;;5096767;28;20070;-74
2022/05/20 03:30:08;;;;;;;15.73;6.50;;;18.50;99.90;;;;;;5096876;28;20020;-73
2022/05/20 03:32:34;;;;;;;15.77;6.40;;;18.50;99.90;;;;;;5096849;28;20017;-73
2022/05/20 03:35:00;;;;;;;10.95;6.32;;;18.50;99.90;;;;;;5095171;28;20035;-71
2022/05/20 03:37:26;;;;;;;17.55;6.35;;;18.50;99.90;;;;;;5096731;28;20034;-74
2022/05/20 03:39:55;;;;;;;13.40;4.82;;;18.50;99.90;;;;;;5082288;28;20113;-72
2022/05/20 03:42:23;;;;;;;12.45;5.20;;;18.50;99.90;;;;;;5083220;28;20034;-73
2022/05/20 03:44:49;;;;;;;12.55;6.65;;;18.50;99.90;;;;;;5095657;28;20081;-73
2022/05/20 03:47:15;;;;;;;17.60;6.25;;;18.60;99.90;;;;;;5096391;28;20036;-73
2022/05/20 03:49:45;;;;;;;11.23;6.30;;;18.60;99.90;;;;;;5098565;28;20020;-73
2022/05/20 03:52:11;;;;;;;14.55;6.38;;;18.60;99.90;;;;;;5088954;28;20388;-74
2022/05/20 03:54:37;;;;;;;14.23;5.65;;;18.50;99.90;;;;;;5100472;28;20032;-76
2022/05/20 03:57:04;;;;;;;13.02;6.20;;;18.60;99.90;;;;;;5100564;28;20028;-74
2022/05/20 03:59:33;;;;;;;14.23;5.30;;;18.60;99.90;;;;;;5098828;28;20024;-74
2022/05/20 04:02:00;;;;;;;12.98;5.80;;;18.70;99.90;;;;;;5100395;28;20073;-74
2022/05/20 04:04:38;;;;;;;17.85;5.93;;;18.70;99.90;;;;;;5098904;28;20040;-74
2022/05/20 04:07:10;;;;;;;11.43;5.28;;;18.60;99.90;;;;;;5100000;28;20024;-74
2022/05/20 04:09:36;;;;;;;12.90;5.50;;;18.60;99.90;;;;;;5100353;28;20456;-73
2022/05/20 04:12:06;;;;;;;9.55;6.40;;;18.60;99.90;;;;;;5100192;28;20023;-74
2022/05/20 04:14:33;;;;;;;11.82;5.85;;;18.50;99.90;;;;;;5099924;28;20020;-73
2022/05/20 04:16:59;;;;;;;17.08;6.05;;;18.50;99.90;;;;;;5092378;28;20452;-74
2022/05/20 04:19:27;;;;;;;9.15;6.10;;;18.50;99.90;;;;;;5100094;28;20107;-73
2022/05/20 04:21:58;;;;;;;8.20;5.13;;;18.50;99.90;;;;;;5098380;28;20031;-74
2022/05/20 04:24:24;;;;;;;12.40;5.78;;;18.40;99.90;;;;;;5098462;28;20032;-75
2022/05/20 04:26:51;;;;;;;12.80;5.70;;;18.50;99.90;;;;;;5098450;28;20403;-74
2022/05/20 04:29:18;;;;;;;12.77;6.45;;;18.50;99.90;;;;;;5098557;28;20494;-75
2022/05/20 04:31:51;;;;;;;11.88;6.03;;;18.50;99.90;;;;;;5099754;28;20054;-75
2022/05/20 04:34:18;;;;;;;18.13;6.32;;;18.50;99.90;;;;;;5099799;28;20396;-75
2022/05/20 04:36:44;;;;;;;14.63;6.30;;;18.50;99.90;;;;;;5099290;28;20431;-75
2022/05/20 04:39:10;;;;;;;15.45;6.50;;;18.50;99.90;;;;;;5091027;28;20028;-74
2022/05/20 04:47:09;;;;;;;10.68;6.13;;;18.60;99.90;;;;;;5099136;28;20059;-75
2022/05/20 04:49:40;;;;;;;15.38;5.82;;;18.60;99.90;;;;;;5098145;28;20028;-75
2022/05/20 04:52:06;;;;;;;13.23;5.50;;;18.60;99.90;;;;;;5097996;28;20027;-76
2022/05/20 04:54:50;;;;;;;19.42;5.78;;;18.70;99.90;;;;;;5099244;28;20109;-76
2022/05/20 04:57:21;;;;;;;11.85;6.00;;;18.70;99.90;;;;;;5099285;28;20020;-76
2022/05/20 04:59:47;;;;;;;11.80;5.97;;;18.80;99.90;;;;;;5097623;28;20039;-75
2022/05/20 05:02:13;;;;;;;17.80;6.85;;;18.80;99.90;;;;;;5098673;28;20024;-74
2022/05/20 05:04:39;;;;;;;17.08;6.78;;;18.80;99.90;;;;;;5097563;28;20073;-75
2022/05/20 05:07:09;;;;;;;16.35;5.80;;;18.90;99.90;;;;;;5098827;28;20028;-76
2022/05/20 05:09:36;;;;;;;16.60;5.75;;;18.90;99.90;;;;;;5097658;28;20078;-76
2022/05/20 05:12:04;;;;;;;12.57;6.43;;;19.00;99.90;;;;;;5097550;28;20031;-77
2022/05/20 05:14:36;;;;;;;14.50;5.47;;;19.10;99.90;;;;;;5098637;28;20028;-75
2022/05/20 05:17:05;;;;;;;12.32;6.20;;;19.10;99.90;;;;;;5078470;28;20021;-74
2022/05/20 05:19:32;;;;;;;12.52;6.03;;;19.20;99.90;;;;;;5097769;28;20027;-75
2022/05/20 05:21:57;;;;;;;14.25;5.22;;;19.30;99.90;;;;;;5098395;28;20012;-77
2022/05/20 05:24:23;;;;;;;11.55;6.35;;;19.30;99.90;;;;;;5097204;28;20024;-76
2022/05/20 05:26:49;;;;;;;14.25;6.07;;;19.40;99.90;;;;;;5098624;28;20435;-76
2022/05/20 05:29:15;;;;;;;13.57;5.88;;;19.40;99.90;;;;;;5097160;28;20060;-76
2022/05/20 05:31:40;;;;;;;13.70;5.78;;;19.40;99.90;;;;;;5089282;28;20023;-75
2022/05/20 05:34:08;;;;;;;17.42;5.72;;;19.40;99.90;;;;;;5090206;28;20476;-76
2022/05/20 05:36:34;;;;;;;11.57;6.45;;;19.50;99.90;;;;;;5090411;28;20016;-75
2022/05/20 05:39:00;;;;;;;10.20;5.57;;;19.50;99.90;;;;;;5092429;28;20028;-75
2022/05/20 05:41:26;;;;;;;9.95;5.97;;;19.60;99.90;;;;;;5090720;28;20701;-74
2022/05/20 05:43:52;;;;;;;13.70;5.72;;;19.60;99.90;;;;;;5098155;28;20024;-76
2022/05/20 05:46:18;;;;;;;19.60;5.63;;;19.70;99.90;;;;;;5098255;28;20500;-77
2022/05/20 05:48:44;;;;;;;12.77;5.95;;;19.70;99.90;;;;;;5096784;28;20032;-77
2022/05/20 05:51:10;;;;;;;20.67;5.22;;;19.70;99.90;;;;;;5096903;28;20103;-75
2022/05/20 05:53:36;;;;;;;11.27;4.93;;;19.80;99.90;;;;;;5098048;28;20031;-74
2022/05/20 05:56:05;;;;;;;13.13;7.13;;;19.90;99.90;;;;;;5098278;28;20032;-75
2022/05/20 05:58:32;;;;;;;14.90;5.18;;;20.00;99.90;;;;;;5098327;28;20445;-75
2022/05/20 06:00:58;;;;;;;13.13;5.70;;;20.00;99.90;;;;;;5097877;28;20097;-76
2022/05/20 06:03:25;;;;;;;14.45;5.07;;;20.10;99.90;;;;;;5098153;28;20077;-74
2022/05/20 06:05:51;;;;;;;11.43;4.28;;;20.20;99.90;;;;;;5097582;28;20396;-75
2022/05/20 06:08:17;;;;;;;10.65;4.90;;;20.30;99.90;;;;;;5098077;28;20024;-74
2022/05/20 06:10:44;;;;;;;17.05;4.80;;;20.50;99.90;;;;;;5096443;28;20020;-75
2022/05/20 06:13:10;;;;;;;12.65;5.75;;;20.60;99.90;;;;;;5095734;28;20101;-75
2022/05/20 06:15:38;;;;;;;7.32;4.50;;;20.70;99.90;;;;;;5087074;28;20031;-76
2022/05/20 06:18:04;;;;;;;11.45;5.15;;;20.70;99.90;;;;;;5097851;28;20028;-74
2022/05/20 06:20:30;;;;;;;11.27;5.55;;;20.80;99.90;;;;;;5097408;28;20104;-75
2022/05/20 06:22:57;;;;;;;15.85;4.55;;;20.80;99.90;;;;;;5096373;28;20027;-75
2022/05/20 06:25:23;;;;;;;9.73;4.68;;;20.70;99.90;;;;;;5097566;28;20023;-75
2022/05/20 06:27:49;;;;;;;11.15;5.47;;;20.60;99.90;;;;;;5096653;28;20073;-75
2022/05/20 06:30:19;;;;;;;10.88;4.63;;;20.60;99.90;;;;;;5097486;28;20024;-74
2022/05/20 06:32:45;;;;;;;10.35;4.90;;;20.50;99.90;;;;;;5096178;28;20075;-76
2022/05/20 06:40:47;;;;;;;15.40;6.18;;;20.30;99.90;;;;;;5078633;28;20027;-75
2022/05/20 06:43:15;;;;;;;18.45;5.57;;;20.30;99.90;;;;;;5077560;28;20056;-74
2022/05/20 06:45:41;;;;;;;10.68;5.20;;;20.30;99.90;;;;;;5083835;28;20517;-75
2022/05/20 06:48:07;;;;;;;11.80;5.18;;;20.40;99.90;;;;;;5088358;28;20060;-76
2022/05/20 06:50:37;;;;;;;13.65;5.38;;;20.40;99.90;;;;;;5097295;28;20472;-75
2022/05/20 06:53:03;;;;;;;11.80;5.20;;;20.30;99.90;;;;;;5095966;28;20028;-76
2022/05/20 06:55:30;;;;;;;13.57;4.20;;;20.40;99.90;;;;;;5097495;28;20023;-75
2022/05/20 06:57:57;;;;;;;9.15;4.60;;;20.60;99.90;;;;;;5097194;28;20054;-74
2022/05/20 07:00:23;;;;;;;24.67;6.07;;;20.70;99.90;;;;;;5097098;28;20012;-74
2022/05/20 07:02:49;;;;;;;15.52;5.18;;;20.90;99.90;;;;;;5095864;28;20024;-74
2022/05/20 07:05:15;;;;;;;12.85;5.18;;;21.10;99.90;;;;;;5095634;28;20027;-74
2022/05/20 07:07:41;;;;;;;20.52;4.55;;;21.10;99.90;;;;;;5080779;28;20039;-76
2022/05/20 07:10:09;;;;;;;11.88;5.30;;;21.30;99.90;;;;;;5075425;28;20024;-74
2022/05/20 07:12:35;;;;;;;15.57;5.10;;;21.40;99.90;;;;;;5078547;28;20388;-76
2022/05/20 07:15:02;;;;;;;14.82;4.90;;;21.50;99.90;;;;;;5082868;28;20020;-76
2022/05/20 07:17:27;;;;;;;12.70;5.22;;;21.50;99.90;;;;;;5092129;28;20112;-74
2022/05/20 07:19:54;;;;;;;14.50;4.97;;;21.50;99.90;;;;;;5095432;28;20052;-74
2022/05/20 07:22:20;;;;;;;14.90;4.88;;;21.60;99.90;;;;;;5096915;28;20103;-75
2022/05/20 07:24:46;;;;;;;15.20;4.93;;;21.70;99.90;;;;;;5098902;28;20052;-75
2022/05/20 07:27:12;;;;;;;10.85;4.30;;;21.80;99.90;;;;;;5099592;28;20058;-74
2022/05/20 07:29:39;;;;;;;15.32;4.50;;;21.80;99.90;;;;;;5101218;28;20028;-74
2022/05/20 07:32:05;;;;;;;11.93;4.53;;;21.80;99.90;;;;;;5086627;28;20028;-75
2022/05/20 07:34:31;;;;;;;17.25;4.43;;;21.80;99.90;;;;;;5101042;28;20016;-73
2022/05/20 07:36:57;;;;;;;9.65;4.47;;;21.90;99.90;;;;;;5100505;28;20104;-74
2022/05/20 07:39:23;;;;;;;13.20;4.82;;;22.00;99.90;;;;;;5090535;28;20024;-75
2022/05/20 07:41:49;;;;;;;10.57;5.03;;;22.10;99.90;;;;;;5095236;28;20032;-75
2022/05/20 07:44:15;;;;;;;14.95;4.80;;;22.20;99.90;;;;;;5100704;28;20017;-74
2022/05/20 07:46:41;;;;;;;15.60;4.63;;;22.30;99.90;;;;;;5100502;28;20051;-74
2022/05/20 07:49:07;;;;;;;15.65;4.35;;;22.40;99.90;;;;;;5100539;28;20094;-74
2022/05/20 07:51:34;;;;;;;11.27;4.80;;;22.50;99.90;;;;;;5096415;28;20032;-76
2022/05/20 07:54:04;;;;;;;14.80;4.45;;;22.50;99.90;;;;;;5088604;28;20016;-75
2022/05/20 07:56:37;;;;;;;16.02;4.35;;;22.60;99.90;;;;;;5087167;28;20398;-77
2022/05/20 07:59:16;;;;;;;9.18;4.22;;;22.60;99.90;;;;;;5100345;28;20091;-75
2022/05/20 08:01:45;;;;;;;15.52;5.20;;;22.70;99.90;;;;;;5099916;28;20056;-77
2022/05/20 08:07:09;;;;;;;16.98;5.75;;;22.80;99.90;;;;;;5099942;28;20070;-77
2022/05/20 08:09:35;;;;;;;7.82;4.05;;;23.00;99.90;;;;;;5098449;28;20064;-76
2022/05/20 08:12:01;;;;;;;10.82;4.68;;;23.20;99.90;;;;;;5099890;28;20024;-76
2022/05/20 08:14:28;;;;;;;13.02;4.72;;;23.20;99.90;;;;;;5099614;28;20373;-76
2022/05/20 08:16:57;;;;;;;14.07;4.25;;;23.30;99.90;;;;;;5080176;28;20029;-77
2022/05/20 08:19:24;;;;;;;17.13;4.18;;;23.20;99.90;;;;;;5096771;28;20362;-76
2022/05/20 08:21:50;;;;;;;13.45;4.75;;;23.10;99.90;;;;;;5090858;28;20081;-75
2022/05/20 08:24:15;;;;;;;9.98;4.43;;;23.20;99.90;;;;;;5113568;28;20091;-75
2022/05/20 08:26:42;;;;;;;13.25;4.63;;;23.10;99.90;;;;;;5098159;28;20028;-77
2022/05/20 08:29:11;;;;;;;12.10;4.50;;;23.20;99.90;;;;;;5099247;28;20360;-78
2022/05/20 08:31:37;;;;;;;16.77;5.57;;;23.40;99.90;;;;;;5098063;28;20050;-76
2022/05/20 08:34:03;;;;;;;11.13;5.03;;;23.50;99.90;;;;;;5099210;28;20024;-76
2022/05/20 08:36:29;;;;;;;11.00;4.60;;;23.50;99.90;;;;;;5097013;28;20539;-75
2022/05/20 08:38:55;;;;;;;9.90;4.10;;;23.70;99.90;;;;;;5092547;28;20029;-77
2022/05/20 08:41:28;;;;;;;12.85;4.40;;;23.80;99.90;;;;;;5091044;28;20031;-75
2022/05/20 08:43:53;;;;;;;15.25;5.07;;;23.90;99.90;;;;;;5095409;28;20085;-76
2022/05/20 08:46:22;;;;;;;8.38;3.75;;;24.00;99.90;;;;;;5091718;28;20116;-75
2022/05/20 08:48:54;;;;;;;20.08;4.55;;;24.10;99.90;;;;;;5098952;28;20016;-76
2022/05/20 08:51:22;;;;;;;10.40;4.18;;;24.00;99.90;;;;;;5097297;28;20495;-76
2022/05/20 08:53:49;;;;;;;15.02;4.65;;;24.20;99.90;;;;;;5097695;28;20016;-75
2022/05/20 08:56:19;;;;;;;11.50;3.60;;;24.30;99.90;;;;;;5097884;28;20196;-74
2022/05/20 08:58:55;;;;;;;14.15;5.00;;;24.30;99.90;;;;;;5098946;28;20021;-74
2022/05/20 09:01:32;;;;;;;13.40;4.38;;;24.40;99.90;;;;;;5098779;28;20032;-75
2022/05/20 09:03:58;;;;;;;13.82;4.10;;;24.40;99.90;;;;;;5098906;28;20028;-76
2022/05/20 09:06:25;;;;;;;17.67;4.95;;;24.40;99.90;;;;;;5098362;28;20598;-75
2022/05/20 09:09:12;;;;;;;13.10;5.15;;;24.40;99.90;;;;;;5097473;28;20095;-76
2022/05/20 09:11:41;;;;;;;19.70;4.70;;;24.60;99.90;;;;;;5098760;28;20038;-74
2022/05/20 09:17:21;;;;;;;14.82;4.32;;;24.70;99.90;;;;;;5092017;28;20063;-74
2022/05/20 09:19:58;;;;;;;13.70;4.45;;;25.00;99.90;;;;;;5088677;28;20083;-75
2022/05/20 09:22:30;;;;;;;12.45;4.57;;;25.00;99.90;;;;;;5094656;28;20062;-75
2022/05/20 09:24:56;;;;;;;10.75;4.43;;;25.20;99.90;;;;;;5096950;28;20032;-73
2022/05/20 09:27:36;;;;;;;13.02;4.07;;;25.40;99.90;;;;;;5098231;28;20494;-75
2022/05/20 09:30:08;;;;;;;14.05;4.22;;;25.40;99.90;;;;;;5091216;28;20452;-75
2022/05/20 09:32:35;;;;;;;10.40;4.45;;;25.60;99.90;;;;;;5093682;28;20116;-76
2022/05/20 09:35:07;;;;;;;14.57;4.60;;;25.80;99.90;;;;;;5091387;28;20105;-76
2022/05/20 09:37:34;;;;;;;11.82;5.15;;;26.00;99.90;;;;;;5098303;28;20039;-75
2022/05/20 09:40:25;;;;;;;17.00;4.43;;;26.10;99.90;;;;;;5084307;28;20036;-76
2022/05/20 09:43:29;;;;;;;10.25;4.07;;;26.10;99.90;;;;;;5096667;28;20036;-75
2022/05/20 09:45:57;;;;;;;16.10;4.93;;;26.20;99.90;;;;;;5097273;28;20067;-75
2022/05/20 09:48:55;;;;;;;15.05;4.95;;;25.80;99.90;;;;;;5097588;28;20028;-75
2022/05/20 09:52:05;;;;;;;13.90;4.82;;;25.60;99.90;;;;;;5097498;28;20017;-74
2022/05/20 09:54:34;;;;;;;19.97;4.23;;;25.70;99.90;;;;;;5063018;28;20085;-76
2022/05/20 09:57:13;;;;;;;13.82;4.05;;;25.90;99.90;;;;;;5097816;28;20269;-76
2022/05/20 09:59:48;;;;;;;12.80;4.00;;;26.10;99.90;;;;;;5089186;28;20170;-76
2022/05/20 10:02:23;;;;;;;18.15;4.38;;;26.20;99.90;;;;;;5096281;28;20095;-76
2022/05/20 10:05:04;;;;;;;14.73;4.10;;;26.40;99.90;;;;;;5095890;28;20031;-75
2022/05/20 10:07:55;;;;;;;10.88;4.03;;;26.40;99.90;;;;;;5096117;28;20032;-76
2022/05/20 10:10:32;;;;;;;;;;;26.40;99.90;;;;;;5086523;28;20025;-75
2022/05/20 10:13:01;;;;;;;12.25;4.03;;;26.30;99.90;;;;;;5081426;28;20354;-74
2022/05/20 10:15:48;;;;;;;10.43;3.90;;;26.30;99.90;;;;;;5077811;28;20043;-76
2022/05/20 10:18:30;;;;;;;15.77;4.18;;;26.30;99.90;;;;;;5089154;28;20035;-74
2022/05/20 10:21:12;;;;;;;11.10;4.30;;;26.00;99.90;;;;;;5075786;28;20028;-74
2022/05/20 10:23:39;;;;;;;15.48;3.88;;;26.00;99.90;;;;;;5077085;28;20047;-75
2022/05/20 10:26:12;;;;;;;8.98;3.85;;;26.10;99.90;;;;;;5079064;28;20024;-75
2022/05/20 10:34:34;;;;;;;11.75;4.00;;;26.30;99.90;;;;;;5073274;28;20031;-75
2022/05/20 10:37:27;;;;;;;16.67;4.28;;;26.30;99.90;;;;;;5096891;28;20096;-76
2022/05/20 10:40:20;;;;;;;17.00;3.85;;;26.40;99.90;;;;;;5052356;28;20033;-75
2022/05/20 10:43:12;;;;;;;11.95;4.10;;;26.30;99.90;;;;;;5076190;28;20084;-75
2022/05/20 10:48:45;;;;;;;17.15;3.65;;;26.40;99.90;;;;;;5097070;28;20047;-75
2022/05/20 10:51:52;;;;;;;8.82;3.80;;;26.50;99.90;;;;;;5095529;28;20056;-75
2022/05/20 10:54:45;;;;;;;10.32;3.67;;;26.80;99.90;;;;;;5096946;28;20020;-75
2022/05/20 10:57:34;;;;;;;16.73;4.20;;;27.30;99.90;;;;;;5096997;28;20031;-75
2022/05/20 11:00:28;;;;;;;7.93;3.50;;;27.50;99.90;;;;;;5094618;28;20028;-75
2022/05/20 11:03:09;;;;;;;12.05;3.03;;;27.90;99.90;;;;;;5092549;28;20040;-75
2022/05/20 11:05:57;;;;;;;11.38;3.92;;;28.10;99.90;;;;;;5096434;28;20031;-75
2022/05/20 11:08:56;;;;;;;10.55;4.18;;;27.80;99.90;;;;;;5096876;28;20081;-75
2022/05/20 11:11:53;;;;;;;13.35;3.72;;;27.90;99.90;;;;;;5095149;28;20028;-76
2022/05/20 11:14:55;;;;;;;17.25;4.10;;;27.70;99.90;;;;;;5096478;28;20502;-76
2022/05/20 11:17:49;;;;;;;10.07;3.47;;;27.80;99.90;;;;;;5077220;28;20099;-74
2022/05/20 11:20:20;;;;;;;12.57;3.05;;;27.90;99.80;;;;;;5075704;28;20477;-76
2022/05/20 11:23:10;;;;;;;11.63;3.42;;;28.00;99.00;;;;;;5077447;28;20025;-74
2022/05/20 11:25:51;;;;;;;11.88;3.00;;;28.10;98.30;;;;;;5077625;28;20016;-74
2022/05/20 11:28:16;;;;;;;12.63;3.40;;;28.30;98.30;;;;;;5077167;28;20114;-74
2022/05/20 11:30:45;;;;;;;13.43;3.35;;;28.30;97.30;;;;;;5079658;28;20016;-73
2022/05/20 11:33:33;;;;;;;10.93;4.05;;;28.60;97.70;;;;;;5078395;28;20016;-74
2022/05/20 11:36:15;;;;;;;12.57;3.25;;;28.60;98.20;;;;;;5089674;28;20078;-74
2022/05/20 11:38:48;;;;;;;18.45;3.53;;;28.60;96.30;;;;;;5076720;28;20086;-75
2022/05/20 11:41:13;;;;;;;9.63;3.03;;;28.30;95.60;;;;;;5075912;28;20020;-75
2022/05/20 11:44:00;;;;;;;13.85;3.28;;;28.20;96.10;;;;;;5077878;28;20025;-74
2022/05/20 11:46:44;;;;;;;14.57;4.32;;;28.30;96.30;;;;;;5078060;28;20036;-75
2022/05/20 11:49:27;;;;;;;12.13;2.60;;;28.50;96.80;;;;;;5075721;28;20021;-75
2022/05/20 11:52:08;;;;;;;15.55;3.60;;;28.60;96.40;;;;;;5077828;28;20020;-76
2022/05/20 11:54:54;;;;;;;10.02;3.50;;;28.80;95.70;;;;;;5077532;28;20031;-75
2022/05/20 11:57:25;;;;;;;18.25;3.28;;;29.00;96.20;;;;;;5091933;28;20016;-76
2022/05/20 11:59:54;;;;;;;13.75;3.75;;;29.30;95.40;;;;;;5075996;28;20028;-75
2022/05/20 12:02:21;;;;;;;10.27;3.35;;;29.50;95.10;;;;;;5076388;28;20027;-75
2022/05/20 12:04:49;;;;;;;21.40;3.65;;;29.70;93.20;;;;;;5078124;28;20045;-74
2022/05/20 12:07:19;;;;;;;12.15;3.08;;;29.90;93.60;;;;;;5076032;28;20065;-75
2022/05/20 12:09:54;;;;;;;11.05;2.70;;;30.10;94.20;;;;;;5078065;28;20133;-75
2022/05/20 12:12:28;;;;;;;14.80;3.38;;;30.00;91.70;;;;;;5077267;28;20158;-75
2022/05/20 12:15:03;;;;;;;16.02;3.60;;;30.00;92.70;;;;;;5092811;28;20024;-75
2022/05/20 12:17:36;;;;;;;18.00;4.65;;;30.10;93.10;;;;;;5082062;28;20433;-75
2022/05/20 12:26:07;;;;;;;14.75;3.10;;;30.30;92.40;;;;;;5080338;28;20052;-75
2022/05/20 12:28:39;;;;;;;13.25;3.53;;;30.30;92.10;;;;;;5078313;28;20040;-74
2022/05/20 12:31:20;;;;;;;10.13;3.30;;;30.10;91.90;;;;;;5080327;28;20020;-75
2022/05/20 12:34:00;;;;;;;8.35;2.95;;;30.00;91.50;;;;;;5079691;28;20024;-74
2022/05/20 12:36:29;;;;;;;6.53;2.70;;;30.00;92.40;;;;;;5077422;28;20020;-75
2022/05/20 12:39:06;;;;;;;12.13;3.20;;;30.20;91.80;;;;;;5079038;28;20036;-75
2022/05/20 12:41:59;;;;;;;7.50;2.80;;;30.40;92.20;;;;;;5079877;28;20071;-75
2022/05/20 12:44:25;;;;;;;19.42;3.90;;;30.40;92.30;;;;;;5103464;28;20032;-75
2022/05/20 12:47:06;;;;;;;15.23;3.58;;;30.20;92.30;;;;;;5086162;28;20043;-74
2022/05/20 12:49:47;;;;;;;12.95;2.88;;;30.30;91.90;;;;;;5098768;28;20024;-75
2022/05/20 12:52:31;;;;;;;9.55;3.13;;;30.30;91.90;;;;;;5099399;28;20479;-75
2022/05/20 12:55:11;;;;;;;17.90;3.47;;;30.30;93.90;;;;;;5098968;28;20480;-75
2022/05/20 12:57:47;;;;;;;12.85;3.00;;;30.30;92.30;;;;;;5098914;28;20067;-75
2022/05/20 13:00:15;;;;;;;13.85;3.13;;;30.50;91.70;;;;;;5098407;28;20028;-74
2022/05/20 13:02:46;;;;;;;9.98;3.28;;;30.50;93.60;;;;;;5089852;28;20460;-74
2022/05/20 13:05:44;;;;;;;14.23;3.83;;;30.70;93.40;;;;;;5097445;28;20032;-74
2022/05/20 13:08:18;;;;;;;10.23;3.10;;;31.00;93.90;;;;;;5075314;28;20055;-75
2022/05/20 13:10:44;;;;;;;18.23;4.10;;;31.00;91.50;;;;;;5098740;28;20560;-74
2022/05/20 13:13:14;;;;;;;8.60;3.25;;;31.20;90.60;;;;;;5097226;28;20035;-75
2022/05/20 13:15:43;;;;;;;10.00;3.27;;;31.20;89.80;;;;;;5091398;28;20074;-74
2022/05/20 13:18:22;;;;;;;13.13;3.00;;;31.30;90.70;;;;;;5097154;28;20020;-74
2022/05/20 13:20:53;;;;;;;11.63;2.90;;;31.20;91.10;;;;;;5098440;28;20024;-74
2022/05/20 13:23:25;;;;;;;9.50;2.88;;;31.30;89.70;;;;;;5098079;28;20028;-75
2022/05/20 13:25:51;;;;;;;15.95;4.07;;;31.20;91.00;;;;;;5098131;28;20032;-75
2022/05/20 13:28:31;;;;;;;12.20;2.95;;;31.00;90.30;;;;;;5098386;28;20400;-75
2022/05/20 13:31:08;;;;;;;12.63;4.15;;;31.10;90.90;;;;;;5096750;28;20028;-75
2022/05/20 13:33:37;;;;;;;13.00;3.55;;;31.20;91.40;;;;;;5096723;28;20499;-74
2022/05/20 13:36:06;;;;;;;14.85;3.47;;;30.70;91.00;;;;;;5098022;28;20059;-74
2022/05/20 13:38:40;;;;;;;11.60;3.00;;;30.90;90.20;;;;;;5096007;28;20054;-74
2022/05/20 13:41:07;;;;;;;14.50;3.05;;;31.00;90.50;;;;;;5086409;28;20032;-74